createdAt,value
2018-03-07T00:00:54.086Z,99.99
2018-03-07T00:01:54.086Z,99.99
2018-03-07T00:02:54.100Z,99.99
2018-03-07T00:03:54.106Z,99.99
2018-03-07T00:04:54.108Z,99.99
2018-03-07T00:05:54.120Z,99.99
2018-03-07T00:06:54.126Z,99.99
2018-03-07T00:07:54.123Z,99.99
2018-03-07T00:08:54.136Z,99.99
2018-03-07T00:09:54.143Z,99.99
2018-03-07T00:10:54.148Z,99.99
2018-03-07T00:11:54.150Z,99.99
2018-03-07T00:12:54.160Z,99.99
2018-03-07T00:13:54.162Z,99.99
2018-03-07T00:14:54.168Z,99.99
2018-03-07T00:15:54.180Z,99.99
2018-03-07T00:16:54.180Z,99.99
2018-03-07T00:17:54.186Z,99.99
2018-03-07T00:18:54.203Z,99.99
2018-03-07T00:19:54.262Z,99.99
2018-03-07T00:20:54.206Z,99.99
2018-03-07T00:21:54.224Z,99.99
2018-03-07T00:22:54.217Z,99.99
2018-03-07T00:23:54.228Z,99.99
2018-03-07T00:24:54.230Z,99.99
2018-03-07T00:25:54.278Z,99.99
2018-03-07T00:26:54.245Z,99.99
2018-03-07T00:27:54.254Z,99.99
2018-03-07T00:28:54.264Z,99.99
2018-03-07T00:29:54.262Z,99.99
2018-03-07T00:30:54.281Z,99.99
2018-03-07T00:31:54.283Z,99.99
2018-03-07T00:32:54.281Z,99.99
2018-03-07T00:33:54.286Z,99.99
2018-03-07T00:34:54.293Z,99.99
2018-03-07T00:35:54.299Z,99.99
2018-03-07T00:36:54.309Z,99.99
2018-03-07T00:37:54.332Z,99.99
2018-03-07T00:38:54.342Z,99.99
2018-03-07T00:39:54.324Z,99.99
2018-03-07T00:40:54.332Z,99.99
2018-03-07T00:41:54.337Z,99.99
2018-03-07T00:42:54.344Z,99.99
2018-03-07T00:43:54.360Z,99.99
2018-03-07T00:44:54.369Z,99.99
2018-03-07T00:45:54.364Z,99.99
2018-03-07T00:46:54.368Z,99.99
2018-03-07T00:47:54.376Z,99.99
2018-03-07T00:48:54.388Z,99.99
2018-03-07T00:49:54.392Z,99.99
2018-03-07T00:50:54.400Z,99.99
2018-03-07T00:51:54.415Z,99.99
2018-03-07T00:52:54.412Z,99.99
2018-03-07T00:53:54.430Z,99.99
2018-03-07T00:54:54.419Z,99.99
2018-03-07T00:55:54.431Z,99.99
2018-03-07T00:56:54.432Z,99.99
2018-03-07T00:57:54.442Z,99.99
2018-03-07T00:58:54.448Z,99.99
2018-03-07T00:59:54.449Z,99.99
2018-03-07T01:00:54.460Z,99.99
2018-03-07T01:01:54.467Z,99.99
2018-03-07T01:02:54.476Z,99.99
2018-03-07T01:03:54.482Z,99.99
2018-03-07T01:04:54.481Z,99.99
2018-03-07T01:05:54.487Z,99.99
2018-03-07T01:06:54.501Z,99.99
2018-03-07T01:07:54.508Z,99.99
2018-03-07T01:08:54.510Z,99.99
2018-03-07T01:09:54.516Z,99.99
2018-03-07T01:10:54.521Z,99.99
2018-03-07T01:11:54.536Z,99.99
2018-03-07T01:12:54.535Z,99.99
2018-03-07T01:13:54.543Z,99.99
2018-03-07T01:14:54.561Z,99.99
2018-03-07T01:15:54.556Z,99.99
2018-03-07T01:16:54.567Z,99.99
2018-03-07T01:17:54.561Z,99.99
2018-03-07T01:18:54.570Z,99.99
2018-03-07T01:19:54.576Z,99.99
2018-03-07T01:20:54.587Z,99.99
2018-03-07T01:21:54.597Z,99.99
2018-03-07T01:22:54.606Z,99.99
2018-03-07T01:23:54.602Z,99.99
2018-03-07T01:24:54.615Z,99.99
2018-03-07T01:25:54.618Z,99.99
2018-03-07T01:26:54.620Z,99.99
2018-03-07T01:27:54.634Z,99.99
2018-03-07T01:28:54.636Z,99.99
2018-03-07T01:29:54.638Z,99.99
2018-03-07T01:30:54.657Z,99.99
2018-03-07T01:31:54.659Z,99.99
2018-03-07T01:32:54.663Z,99.99
2018-03-07T01:33:54.665Z,99.99
2018-03-07T01:34:54.688Z,99.99
2018-03-07T01:35:54.694Z,99.99
2018-03-07T01:36:54.683Z,99.99
2018-03-07T01:37:54.689Z,99.99
2018-03-07T01:38:54.695Z,99.99
2018-03-07T01:39:54.702Z,99.99
2018-03-07T01:40:54.738Z,99.99
2018-03-07T01:41:54.719Z,99.99
2018-03-07T01:42:54.722Z,99.99
2018-03-07T01:43:54.729Z,99.99
2018-03-07T01:44:54.769Z,99.99
2018-03-07T01:45:54.739Z,99.99
2018-03-07T01:46:54.756Z,99.99
2018-03-07T01:47:54.757Z,99.99
2018-03-07T01:48:54.760Z,99.99
2018-03-07T01:49:54.763Z,99.99
2018-03-07T01:50:54.785Z,99.99
2018-03-07T01:51:54.788Z,99.99
2018-03-07T01:52:54.797Z,99.99
2018-03-07T01:53:54.792Z,99.99
2018-03-07T01:54:54.797Z,99.99
2018-03-07T01:55:54.821Z,99.99
2018-03-07T01:56:54.812Z,99.99
2018-03-07T01:57:54.817Z,99.99
2018-03-07T01:58:54.823Z,99.99
2018-03-07T01:59:54.837Z,99.99
2018-03-07T02:00:54.841Z,99.99
2018-03-07T02:01:54.841Z,99.99
2018-03-07T02:02:54.847Z,99.99
2018-03-07T02:03:54.856Z,99.99
2018-03-07T02:04:54.861Z,99.99
2018-03-07T02:05:54.876Z,99.99
2018-03-07T02:06:54.875Z,99.99
2018-03-07T02:07:54.883Z,99.99
2018-03-07T02:08:54.888Z,99.99
2018-03-07T02:09:54.898Z,99.99
2018-03-07T02:10:54.912Z,99.99
2018-03-07T02:11:54.922Z,99.99
2018-03-07T02:12:54.914Z,99.99
2018-03-07T02:13:54.918Z,99.99
2018-03-07T02:14:54.942Z,99.99
2018-03-07T02:15:54.933Z,99.99
2018-03-07T02:16:54.945Z,99.99
2018-03-07T02:17:54.947Z,99.99
2018-03-07T02:18:54.958Z,99.99
2018-03-07T02:19:54.958Z,99.99
2018-03-07T02:20:54.966Z,99.99
2018-03-07T02:21:54.971Z,99.99
2018-03-07T02:22:54.985Z,99.99
2018-03-07T02:23:54.994Z,99.99
2018-03-07T02:24:54.995Z,99.99
2018-03-07T02:25:54.998Z,99.99
2018-03-07T02:26:55.008Z,99.99
2018-03-07T02:27:55.012Z,99.99
2018-03-07T02:28:55.023Z,99.99
2018-03-07T02:29:55.032Z,99.99
2018-03-07T02:30:55.031Z,99.99
2018-03-07T02:31:55.039Z,99.99
2018-03-07T02:32:55.047Z,99.99
2018-03-07T02:33:55.052Z,99.99
2018-03-07T02:34:55.062Z,99.99
2018-03-07T02:35:55.074Z,99.99
2018-03-07T02:36:55.070Z,99.99
2018-03-07T02:37:55.076Z,99.99
2018-03-07T02:38:55.094Z,99.99
2018-03-07T02:39:55.088Z,99.99
2018-03-07T02:40:55.094Z,99.99
2018-03-07T02:41:55.108Z,99.99
2018-03-07T02:42:55.106Z,99.99
2018-03-07T02:43:55.114Z,99.99
2018-03-07T02:44:55.124Z,99.99
2018-03-07T02:45:55.137Z,99.99
2018-03-07T02:46:55.133Z,99.99
2018-03-07T02:47:55.153Z,99.99
2018-03-07T02:48:55.154Z,99.99
2018-03-07T02:49:55.160Z,99.99
2018-03-07T02:50:55.168Z,99.99
2018-03-07T02:51:55.166Z,99.99
2018-03-07T02:52:55.179Z,99.99
2018-03-07T02:53:55.254Z,99.99
2018-03-07T02:54:55.186Z,99.99
2018-03-07T02:55:55.196Z,99.99
2018-03-07T02:56:55.199Z,99.99
2018-03-07T02:57:55.206Z,99.99
2018-03-07T02:58:55.213Z,99.99
2018-03-07T02:59:55.226Z,99.99
2018-03-07T03:00:55.226Z,99.99
2018-03-07T03:01:55.247Z,99.99
2018-03-07T03:02:55.243Z,99.99
2018-03-07T03:03:55.244Z,99.99
2018-03-07T03:04:55.250Z,99.99
2018-03-07T03:05:55.259Z,99.99
2018-03-07T03:06:55.269Z,99.99
2018-03-07T03:07:55.274Z,99.99
2018-03-07T03:08:55.275Z,99.99
2018-03-07T03:09:55.281Z,99.99
2018-03-07T03:10:55.287Z,99.99
2018-03-07T03:11:55.305Z,99.99
2018-03-07T03:12:55.301Z,99.99
2018-03-07T03:13:55.307Z,99.99
2018-03-07T03:14:55.325Z,99.99
2018-03-07T03:15:55.319Z,99.99
2018-03-07T03:16:55.324Z,99.99
2018-03-07T03:17:55.344Z,99.99
2018-03-07T03:18:55.346Z,99.99
2018-03-07T03:19:55.344Z,99.99
2018-03-07T03:20:55.356Z,99.99
2018-03-07T03:21:55.358Z,99.99
2018-03-07T03:22:55.368Z,99.99
2018-03-07T03:23:55.384Z,99.99
2018-03-07T03:24:55.377Z,99.99
2018-03-07T03:25:55.371Z,99.99
2018-03-07T03:26:55.378Z,99.99
2018-03-07T03:27:55.382Z,99.99
2018-03-07T03:28:55.389Z,99.99
2018-03-07T03:29:55.406Z,99.99
2018-03-07T03:30:55.413Z,99.99
2018-03-07T03:31:55.408Z,99.99
2018-03-07T03:32:55.423Z,99.99
2018-03-07T03:33:55.419Z,99.99
2018-03-07T03:34:55.428Z,99.99
2018-03-07T03:35:55.433Z,99.99
2018-03-07T03:36:55.442Z,99.99
2018-03-07T03:37:55.459Z,99.99
2018-03-07T03:38:55.451Z,99.99
2018-03-07T03:39:55.457Z,99.99
2018-03-07T03:40:55.466Z,99.99
2018-03-07T03:41:55.471Z,99.99
2018-03-07T03:42:55.476Z,99.99
2018-03-07T03:43:55.489Z,99.99
2018-03-07T03:44:55.491Z,99.99
2018-03-07T03:45:55.503Z,99.99
2018-03-07T03:46:55.502Z,99.99
2018-03-07T03:47:55.517Z,99.99
2018-03-07T03:48:55.515Z,99.99
2018-03-07T03:49:55.559Z,99.99
2018-03-07T03:50:55.527Z,99.99
2018-03-07T03:51:55.534Z,99.99
2018-03-07T03:52:55.541Z,99.99
2018-03-07T03:53:55.547Z,99.99
2018-03-07T03:54:55.555Z,99.99
2018-03-07T03:55:55.567Z,99.99
2018-03-07T03:56:55.566Z,99.99
2018-03-07T03:57:55.584Z,99.99
2018-03-07T03:58:55.611Z,99.99
2018-03-07T03:59:55.588Z,99.99
2018-03-07T04:00:55.597Z,99.99
2018-03-07T04:01:55.594Z,99.99
2018-03-07T04:02:55.616Z,99.99
2018-03-07T04:03:55.617Z,99.99
2018-03-07T04:04:55.620Z,99.99
2018-03-07T04:05:55.625Z,99.99
2018-03-07T04:06:55.629Z,99.99
2018-03-07T04:07:55.636Z,99.99
2018-03-07T04:08:55.653Z,99.99
2018-03-07T04:09:55.644Z,99.99
2018-03-07T04:11:23.443Z,99.99
2018-03-07T04:11:55.661Z,99.99
2018-03-07T04:12:55.668Z,99.99
2018-03-07T04:13:55.683Z,99.99
2018-03-07T04:14:55.678Z,99.99
2018-03-07T04:15:55.684Z,99.99
2018-03-07T04:16:55.690Z,99.99
2018-03-07T04:17:55.696Z,99.99
2018-03-07T04:18:55.705Z,99.99
2018-03-07T04:19:55.716Z,99.99
2018-03-07T04:20:55.714Z,99.99
2018-03-07T04:21:55.721Z,99.99
2018-03-07T04:22:55.735Z,99.99
2018-03-07T04:23:55.740Z,99.99
2018-03-07T04:24:55.744Z,99.99
2018-03-07T04:25:55.754Z,99.99
2018-03-07T04:26:55.761Z,99.99
2018-03-07T04:27:55.758Z,99.99
2018-03-07T04:28:55.783Z,99.99
2018-03-07T04:29:55.773Z,99.99
2018-03-07T04:30:55.785Z,99.99
2018-03-07T04:31:55.795Z,99.99
2018-03-07T04:32:55.796Z,99.99
2018-03-07T04:33:55.793Z,99.99
2018-03-07T04:34:55.800Z,99.99
2018-03-07T04:35:55.811Z,99.99
2018-03-07T04:36:55.820Z,99.99
2018-03-07T04:37:55.862Z,99.99
2018-03-07T04:38:55.832Z,99.99
2018-03-07T04:39:55.832Z,99.99
2018-03-07T04:40:55.839Z,99.99
2018-03-07T04:41:55.847Z,99.99
2018-03-07T04:42:55.855Z,99.99
2018-03-07T04:43:55.861Z,99.99
2018-03-07T04:44:55.862Z,99.99
2018-03-07T04:45:55.867Z,99.99
2018-03-07T04:46:55.882Z,99.99
2018-03-07T04:47:55.881Z,99.99
2018-03-07T04:48:55.887Z,99.99
2018-03-07T04:49:55.893Z,99.99
2018-03-07T04:50:55.914Z,99.99
2018-03-07T04:51:55.904Z,99.99
2018-03-07T04:52:55.912Z,99.99
2018-03-07T04:53:55.915Z,99.99
2018-03-07T04:54:55.922Z,99.99
2018-03-07T04:55:55.934Z,99.99
2018-03-07T04:56:55.946Z,99.99
2018-03-07T04:57:55.939Z,99.99
2018-03-07T04:58:55.955Z,99.99
2018-03-07T04:59:55.953Z,99.99
2018-03-07T05:00:55.959Z,99.99
2018-03-07T05:01:55.964Z,99.99
2018-03-07T05:02:55.977Z,99.99
2018-03-07T05:03:55.977Z,99.99
2018-03-07T05:04:55.984Z,99.99
2018-03-07T05:05:55.996Z,99.99
2018-03-07T05:06:55.998Z,99.99
2018-03-07T05:07:56.003Z,99.99
2018-03-07T05:08:56.030Z,99.99
2018-03-07T05:09:56.012Z,99.99
2018-03-07T05:10:56.019Z,99.99
2018-03-07T05:11:56.028Z,99.99
2018-03-07T05:12:56.040Z,99.99
2018-03-07T05:13:56.052Z,99.99
2018-03-07T05:14:56.051Z,99.99
2018-03-07T05:15:56.056Z,99.99
2018-03-07T05:16:56.056Z,99.99
2018-03-07T05:17:56.065Z,99.99
2018-03-07T05:18:56.075Z,99.99
2018-03-07T05:19:56.076Z,99.99
2018-03-07T05:20:56.085Z,99.99
2018-03-07T05:21:56.113Z,99.99
2018-03-07T05:22:56.097Z,99.99
2018-03-07T05:23:56.098Z,99.99
2018-03-07T05:24:56.111Z,99.99
2018-03-07T05:25:56.119Z,99.99
2018-03-07T05:26:56.118Z,99.99
2018-03-07T05:27:56.125Z,99.99
2018-03-07T05:28:56.139Z,99.99
2018-03-07T05:29:56.134Z,99.99
2018-03-07T05:30:56.144Z,99.99
2018-03-07T05:31:56.150Z,99.99
2018-03-07T05:32:56.154Z,99.99
2018-03-07T05:33:56.165Z,99.99
2018-03-07T05:34:56.171Z,99.99
2018-03-07T05:35:56.173Z,99.99
2018-03-07T05:36:56.187Z,99.99
2018-03-07T05:37:56.191Z,99.99
2018-03-07T05:38:56.195Z,99.99
2018-03-07T05:39:56.200Z,99.99
2018-03-07T05:40:56.235Z,99.99
2018-03-07T05:41:56.218Z,99.99
2018-03-07T05:42:56.225Z,99.99
2018-03-07T05:43:56.224Z,99.99
2018-03-07T05:44:56.230Z,99.99
2018-03-07T05:45:56.234Z,99.99
2018-03-07T05:46:56.243Z,99.99
2018-03-07T05:47:56.246Z,99.99
2018-03-07T05:48:56.263Z,99.99
2018-03-07T05:49:56.257Z,99.99
2018-03-07T05:50:56.269Z,99.99
2018-03-07T05:51:56.273Z,99.99
2018-03-07T05:52:56.279Z,99.99
2018-03-07T05:53:56.283Z,99.99
2018-03-07T05:54:56.301Z,99.99
2018-03-07T05:55:56.296Z,99.99
2018-03-07T05:56:56.304Z,99.99
2018-03-07T05:57:56.309Z,99.99
2018-03-07T05:58:56.314Z,99.99
2018-03-07T05:59:56.322Z,99.99
2018-03-07T06:00:56.338Z,99.99
2018-03-07T06:01:56.340Z,99.99
2018-03-07T06:02:56.347Z,99.99
2018-03-07T06:03:56.357Z,99.99
2018-03-07T06:04:56.355Z,99.99
2018-03-07T06:05:56.357Z,99.99
2018-03-07T06:06:56.368Z,99.99
2018-03-07T06:07:56.388Z,99.99
2018-03-07T06:08:56.381Z,99.99
2018-03-07T06:09:56.381Z,99.99
2018-03-07T06:10:56.388Z,99.99
2018-03-07T06:11:56.396Z,99.99
2018-03-07T06:12:56.402Z,99.99
2018-03-07T06:13:56.417Z,99.99
2018-03-07T06:14:56.414Z,99.99
2018-03-07T06:15:56.422Z,99.99
2018-03-07T06:16:56.429Z,99.99
2018-03-07T06:17:56.434Z,99.99
2018-03-07T06:18:56.439Z,99.99
2018-03-07T06:19:56.451Z,99.99
2018-03-07T06:20:56.457Z,99.99
2018-03-07T06:21:56.460Z,99.99
2018-03-07T06:22:56.490Z,99.99
2018-03-07T06:23:56.471Z,99.99
2018-03-07T06:24:56.479Z,99.99
2018-03-07T06:25:56.485Z,99.99
2018-03-07T06:26:56.501Z,99.99
2018-03-07T06:27:56.499Z,99.99
2018-03-07T06:28:56.517Z,99.99
2018-03-07T06:29:56.511Z,99.99
2018-03-07T06:30:56.514Z,99.99
2018-03-07T06:31:56.519Z,99.99
2018-03-07T06:32:56.529Z,99.99
2018-03-07T06:33:56.536Z,99.99
2018-03-07T06:34:56.543Z,99.99
2018-03-07T06:35:56.545Z,99.99
2018-03-07T06:36:56.554Z,99.99
2018-03-07T06:37:56.556Z,99.99
2018-03-07T06:38:56.565Z,99.99
2018-03-07T06:39:56.572Z,99.99
2018-03-07T06:40:56.585Z,99.99
2018-03-07T06:41:56.582Z,99.99
2018-03-07T06:42:56.592Z,99.99
2018-03-07T06:43:56.603Z,99.99
2018-03-07T06:44:56.603Z,99.99
2018-03-07T06:45:56.610Z,99.99
2018-03-07T06:46:56.620Z,99.99
2018-03-07T06:47:56.622Z,99.99
2018-03-07T06:48:56.629Z,99.99
2018-03-07T06:49:56.634Z,99.99
2018-03-07T06:50:56.640Z,99.99
2018-03-07T06:51:56.651Z,99.99
2018-03-07T06:52:56.695Z,99.99
2018-03-07T06:53:56.660Z,99.99
2018-03-07T06:54:56.682Z,99.99
2018-03-07T06:55:56.681Z,99.99
2018-03-07T06:56:56.680Z,99.99
2018-03-07T06:57:56.707Z,99.99
2018-03-07T06:58:56.702Z,99.99
2018-03-07T06:59:56.698Z,99.99
2018-03-07T07:00:56.706Z,99.99
2018-03-07T07:01:56.711Z,99.99
2018-03-07T07:02:56.718Z,99.99
2018-03-07T07:03:56.726Z,99.99
2018-03-07T07:04:56.744Z,99.99
2018-03-07T07:05:56.738Z,99.99
2018-03-07T07:06:56.743Z,99.99
2018-03-07T07:07:56.751Z,99.99
2018-03-07T07:08:56.760Z,99.99
2018-03-07T07:09:56.769Z,99.99
2018-03-07T07:10:56.777Z,99.99
2018-03-07T07:11:56.777Z,99.99
2018-03-07T07:12:56.787Z,99.99
2018-03-07T07:13:56.795Z,99.99
2018-03-07T07:14:57.065Z,99.99
2018-03-07T07:15:56.806Z,99.99
2018-03-07T07:16:56.821Z,99.99
2018-03-07T07:17:56.833Z,99.99
2018-03-07T07:18:56.829Z,99.99
2018-03-07T07:19:56.838Z,99.99
2018-03-07T07:20:56.840Z,99.99
2018-03-07T07:21:56.853Z,99.99
2018-03-07T07:22:56.853Z,99.99
2018-03-07T07:23:56.929Z,99.99
2018-03-07T07:24:56.867Z,99.99
2018-03-07T07:25:56.878Z,99.99
2018-03-07T07:26:57.062Z,99.99
2018-03-07T07:27:56.887Z,99.99
2018-03-07T07:28:56.897Z,99.99
2018-03-07T07:29:56.903Z,99.99
2018-03-07T07:30:56.913Z,99.99
2018-03-07T07:31:56.916Z,99.99
2018-03-07T07:32:56.925Z,99.99
2018-03-07T07:33:56.925Z,99.99
2018-03-07T07:34:56.963Z,99.99
2018-03-07T07:35:56.941Z,99.99
2018-03-07T07:36:56.965Z,99.99
2018-03-07T07:37:56.958Z,99.99
2018-03-07T07:38:56.960Z,99.99
2018-03-07T07:39:56.968Z,99.99
2018-03-07T07:40:56.978Z,99.99
2018-03-07T07:41:56.980Z,99.99
2018-03-07T07:42:56.986Z,99.99
2018-03-07T07:43:57.007Z,99.99
2018-03-07T07:44:57.008Z,99.99
2018-03-07T07:45:57.010Z,99.99
2018-03-07T07:46:57.027Z,99.99
2018-03-07T07:47:57.019Z,99.99
2018-03-07T07:48:57.026Z,99.99
2018-03-07T07:49:57.046Z,99.99
2018-03-07T07:50:57.052Z,99.99
2018-03-07T07:51:57.046Z,99.99
2018-03-07T07:52:57.052Z,99.99
2018-03-07T07:53:57.056Z,99.99
2018-03-07T07:54:57.066Z,99.99
2018-03-07T07:55:57.078Z,99.99
2018-03-07T07:56:57.078Z,99.99
2018-03-07T07:57:57.091Z,99.99
2018-03-07T07:58:57.104Z,99.99
2018-03-07T07:59:57.101Z,99.99
2018-03-07T08:00:57.103Z,99.99
2018-03-07T08:01:57.111Z,99.99
2018-03-07T08:02:57.125Z,99.99
2018-03-07T08:03:57.128Z,99.99
2018-03-07T08:04:57.145Z,99.99
2018-03-07T08:05:57.165Z,99.99
2018-03-07T08:06:57.155Z,99.99
2018-03-07T08:07:57.151Z,99.99
2018-03-07T08:08:57.160Z,99.99
2018-03-07T08:09:57.165Z,99.99
2018-03-07T08:10:57.181Z,99.99
2018-03-07T08:11:57.185Z,99.99
2018-03-07T08:12:57.188Z,99.99
2018-03-07T08:13:57.194Z,99.99
2018-03-07T08:14:57.204Z,99.99
2018-03-07T08:15:57.219Z,99.99
2018-03-07T08:16:57.216Z,99.99
2018-03-07T08:17:57.237Z,99.99
2018-03-07T08:18:57.230Z,99.99
2018-03-07T08:19:57.240Z,99.99
2018-03-07T08:20:57.253Z,99.99
2018-03-07T08:21:57.253Z,99.99
2018-03-07T08:22:57.259Z,99.99
2018-03-07T08:23:57.282Z,99.99
2018-03-07T08:24:57.276Z,99.99
2018-03-07T08:25:57.282Z,99.99
2018-03-07T08:26:57.289Z,99.99
2018-03-07T08:27:57.297Z,99.99
2018-03-07T08:28:57.312Z,99.99
2018-03-07T08:29:57.317Z,99.99
2018-03-07T08:30:57.318Z,99.99
2018-03-07T08:31:57.331Z,99.99
2018-03-07T08:32:57.334Z,99.99
2018-03-07T08:33:57.338Z,99.99
2018-03-07T08:34:57.348Z,99.99
2018-03-07T08:35:57.370Z,99.99
2018-03-07T08:36:57.367Z,99.99
2018-03-07T08:37:57.372Z,99.99
2018-03-07T08:38:57.380Z,99.99
2018-03-07T08:39:57.392Z,99.99
2018-03-07T08:40:57.396Z,99.99
2018-03-07T08:41:57.414Z,99.99
2018-03-07T08:42:57.408Z,99.99
2018-03-07T08:43:57.436Z,99.99
2018-03-07T08:44:57.423Z,99.99
2018-03-07T08:45:57.433Z,99.99
2018-03-07T08:46:57.440Z,99.99
2018-03-07T08:47:57.447Z,99.99
2018-03-07T08:48:57.457Z,99.99
2018-03-07T08:49:57.484Z,99.99
2018-03-07T08:50:57.467Z,99.99
2018-03-07T08:51:57.935Z,99.73
2018-03-07T08:52:57.498Z,99.99
2018-03-07T08:53:57.498Z,99.99
2018-03-07T08:54:57.500Z,98.79
2018-03-07T08:55:57.518Z,97.92
2018-03-07T08:56:57.519Z,96.31
2018-03-07T08:57:57.523Z,97.07
2018-03-07T08:58:57.532Z,97.74
2018-03-07T08:59:57.565Z,96.88
2018-03-07T09:00:57.546Z,97.17
2018-03-07T09:01:57.566Z,94.89
2018-03-07T09:02:57.562Z,94.08
2018-03-07T09:03:57.571Z,94.27
2018-03-07T09:04:57.578Z,93.94
2018-03-07T09:05:57.586Z,93.94
2018-03-07T09:06:57.595Z,92.23
2018-03-07T09:07:57.636Z,93.46
2018-03-07T09:08:57.610Z,93.46
2018-03-07T09:09:57.615Z,93.37
2018-03-07T09:10:57.655Z,92.42
2018-03-07T09:11:57.636Z,91.85
2018-03-07T09:12:57.638Z,91.85
2018-03-07T09:13:57.647Z,91.56
2018-03-07T09:14:57.654Z,90.80
2018-03-07T09:15:57.669Z,90.61
2018-03-07T09:16:57.675Z,91.75
2018-03-07T09:17:57.674Z,91.47
2018-03-07T09:18:57.686Z,91.09
2018-03-07T09:19:57.700Z,90.90
2018-03-07T09:20:57.699Z,91.09
2018-03-07T09:21:57.745Z,89.00
2018-03-07T09:22:57.716Z,89.09
2018-03-07T09:23:57.722Z,88.05
2018-03-07T09:24:57.734Z,87.67
2018-03-07T09:25:57.735Z,87.19
2018-03-07T09:26:57.747Z,87.86
2018-03-07T09:27:57.752Z,87.01
2018-03-07T09:28:57.788Z,87.76
2018-03-07T09:29:57.774Z,87.86
2018-03-07T09:30:57.774Z,87.76
2018-03-07T09:31:57.779Z,86.82
2018-03-07T09:32:57.788Z,85.86
2018-03-07T09:33:57.796Z,85.96
2018-03-07T09:34:57.815Z,86.82
2018-03-07T09:35:57.816Z,86.63
2018-03-07T09:36:57.818Z,86.38
2018-03-07T09:37:57.824Z,84.67
2018-03-07T09:38:57.832Z,84.29
2018-03-07T09:39:57.839Z,84.39
2018-03-07T09:40:57.848Z,85.43
2018-03-07T09:41:57.864Z,85.72
2018-03-07T09:42:57.863Z,84.39
2018-03-07T09:43:57.871Z,84.01
2018-03-07T09:44:57.878Z,84.95
2018-03-07T09:45:57.883Z,84.86
2018-03-07T09:46:57.891Z,82.87
2018-03-07T09:47:57.899Z,82.05
2018-03-07T09:48:57.958Z,81.38
2018-03-07T09:49:57.912Z,81.58
2018-03-07T09:50:57.923Z,82.24
2018-03-07T09:51:57.932Z,80.63
2018-03-07T09:52:57.936Z,79.86
2018-03-07T09:53:57.958Z,79.52
2018-03-07T09:54:57.966Z,79.20
2018-03-07T09:55:57.973Z,80.44
2018-03-07T09:56:57.972Z,80.72
2018-03-07T09:57:57.976Z,81.48
2018-03-07T09:58:57.989Z,83.00
2018-03-07T09:59:57.991Z,82.43
2018-03-07T10:00:58.010Z,81.48
2018-03-07T10:01:58.076Z,81.35
2018-03-07T10:02:58.021Z,82.10
2018-03-07T10:03:58.025Z,81.73
2018-03-07T10:04:58.036Z,81.92
2018-03-07T10:05:58.070Z,82.49
2018-03-07T10:06:58.056Z,81.73
2018-03-07T10:07:58.063Z,82.10
2018-03-07T10:08:58.067Z,81.16
2018-03-07T10:09:58.075Z,80.68
2018-03-07T10:10:58.082Z,80.68
2018-03-07T10:11:58.092Z,81.44
2018-03-07T10:12:58.116Z,81.25
2018-03-07T10:13:58.112Z,82.20
2018-03-07T10:14:58.115Z,80.96
2018-03-07T10:15:58.129Z,81.92
2018-03-07T10:16:58.132Z,82.39
2018-03-07T10:17:58.140Z,81.21
2018-03-07T10:18:58.161Z,81.12
2018-03-07T10:19:58.162Z,81.02
2018-03-07T10:21:19.179Z,81.78
2018-03-07T10:21:58.173Z,82.45
2018-03-07T10:22:58.225Z,82.45
2018-03-07T10:23:58.190Z,82.73
2018-03-07T10:24:58.197Z,82.26
2018-03-07T10:25:58.216Z,82.73
2018-03-07T10:26:58.216Z,83.01
2018-03-07T10:27:58.226Z,81.87
2018-03-07T10:28:58.228Z,81.97
2018-03-07T10:29:58.236Z,81.49
2018-03-07T10:30:58.245Z,82.01
2018-03-07T10:31:58.283Z,82.49
2018-03-07T10:32:58.316Z,81.40
2018-03-07T10:33:58.267Z,82.07
2018-03-07T10:34:58.305Z,82.77
2018-03-07T10:35:58.284Z,81.82
2018-03-07T10:36:58.291Z,82.20
2018-03-07T10:37:58.305Z,82.10
2018-03-07T10:38:58.310Z,82.20
2018-03-07T10:39:58.325Z,81.20
2018-03-07T10:40:58.322Z,80.02
2018-03-07T10:41:58.330Z,79.63
2018-03-07T10:42:58.340Z,78.88
2018-03-07T10:43:58.352Z,78.40
2018-03-07T10:44:58.356Z,78.88
2018-03-07T10:45:58.366Z,79.83
2018-03-07T10:46:58.371Z,80.40
2018-03-07T10:47:58.389Z,80.21
2018-03-07T10:48:58.389Z,80.58
2018-03-07T10:49:58.400Z,78.88
2018-03-07T10:50:58.424Z,78.59
2018-03-07T10:51:58.420Z,78.40
2018-03-07T10:52:58.428Z,78.21
2018-03-07T10:53:58.430Z,77.92
2018-03-07T10:54:58.444Z,77.68
2018-03-07T10:55:58.449Z,76.16
2018-03-07T10:56:58.466Z,77.30
2018-03-07T10:57:58.462Z,76.25
2018-03-07T10:58:58.471Z,76.73
2018-03-07T10:59:58.480Z,77.30
2018-03-07T11:00:58.487Z,75.91
2018-03-07T11:01:58.521Z,72.27
2018-03-07T11:02:58.519Z,69.54
2018-03-07T11:03:58.517Z,70.50
2018-03-07T11:04:58.529Z,70.59
2018-03-07T11:05:58.534Z,71.70
2018-03-07T11:06:58.541Z,72.05
2018-03-07T11:07:58.553Z,71.86
2018-03-07T11:08:58.570Z,72.30
2018-03-07T11:09:58.570Z,73.25
2018-03-07T11:10:58.581Z,74.01
2018-03-07T11:11:58.594Z,73.69
2018-03-07T11:12:58.604Z,73.97
2018-03-07T11:13:58.615Z,73.97
2018-03-07T11:14:58.635Z,74.96
2018-03-07T11:15:58.633Z,74.63
2018-03-07T11:16:58.642Z,74.92
2018-03-07T11:17:58.648Z,75.15
2018-03-07T11:18:58.662Z,75.21
2018-03-07T11:19:58.674Z,75.91
2018-03-07T11:20:58.690Z,75.19
2018-03-07T11:21:58.688Z,72.17
2018-03-07T11:22:58.700Z,70.88
2018-03-07T11:23:58.711Z,68.46
2018-03-07T11:24:58.718Z,68.82
2018-03-07T11:25:58.729Z,67.35
2018-03-07T11:26:58.751Z,68.21
2018-03-07T11:27:58.750Z,68.02
2018-03-07T11:28:58.760Z,68.12
2018-03-07T11:29:58.770Z,66.75
2018-03-07T11:30:58.784Z,67.41
2018-03-07T11:31:58.793Z,66.78
2018-03-07T11:32:58.810Z,65.48
2018-03-07T11:33:58.827Z,64.05
2018-03-07T11:34:58.831Z,63.54
2018-03-07T11:35:58.838Z,63.96
2018-03-07T11:36:58.851Z,64.47
2018-03-07T11:37:58.862Z,65.23
2018-03-07T11:38:58.878Z,62.94
2018-03-07T11:39:58.895Z,63.04
2018-03-07T11:40:58.907Z,62.08
2018-03-07T11:41:58.970Z,63.54
2018-03-07T11:42:58.924Z,63.64
2018-03-07T11:43:58.942Z,63.26
2018-03-07T11:44:58.988Z,64.47
2018-03-07T11:45:58.976Z,65.61
2018-03-07T11:46:58.986Z,66.56
2018-03-07T11:47:58.986Z,65.70
2018-03-07T11:48:59.000Z,66.56
2018-03-07T11:49:59.015Z,66.37
2018-03-07T11:50:59.022Z,64.56
2018-03-07T11:51:59.039Z,64.18
2018-03-07T11:52:59.057Z,64.75
2018-03-07T11:53:59.062Z,64.56
2018-03-07T11:54:59.069Z,63.73
2018-03-07T11:55:59.084Z,63.64
2018-03-07T11:56:59.094Z,63.07
2018-03-07T11:57:59.103Z,62.21
2018-03-07T11:58:59.122Z,63.67
2018-03-07T11:59:59.137Z,61.73
2018-03-07T12:00:59.138Z,62.68
2018-03-07T12:01:59.148Z,63.32
2018-03-07T12:02:59.162Z,63.23
2018-03-07T12:03:59.172Z,62.88
2018-03-07T12:04:59.186Z,61.93
2018-03-07T12:05:59.234Z,62.21
2018-03-07T12:06:59.207Z,63.13
2018-03-07T12:07:59.218Z,62.30
2018-03-07T12:08:59.231Z,61.32
2018-03-07T12:09:59.245Z,63.60
2018-03-07T12:10:59.253Z,63.60
2018-03-07T12:11:59.273Z,63.80
2018-03-07T12:12:59.276Z,63.17
2018-03-07T12:13:59.294Z,61.45
2018-03-07T12:14:59.298Z,62.46
2018-03-07T12:15:59.309Z,61.04
2018-03-07T12:16:59.323Z,61.77
2018-03-07T12:17:59.342Z,62.43
2018-03-07T12:18:59.343Z,63.57
2018-03-07T12:19:59.376Z,64.18
2018-03-07T12:20:59.365Z,63.76
2018-03-07T12:21:59.381Z,64.24
2018-03-07T12:22:59.389Z,64.08
2018-03-07T12:23:59.401Z,64.28
2018-03-07T12:24:59.424Z,63.32
2018-03-07T12:25:59.417Z,64.02
2018-03-07T12:26:59.430Z,63.57
2018-03-07T12:27:59.450Z,62.05
2018-03-07T12:28:59.449Z,61.48
2018-03-07T12:29:59.459Z,61.29
2018-03-07T12:30:59.478Z,60.97
2018-03-07T12:31:59.484Z,61.96
2018-03-07T12:32:59.494Z,62.08
2018-03-07T12:33:59.504Z,61.32
2018-03-07T12:34:59.515Z,60.55
2018-03-07T12:35:59.527Z,60.55
2018-03-07T12:36:59.545Z,60.55
2018-03-07T12:37:59.548Z,60.36
2018-03-07T12:38:59.561Z,60.27
2018-03-07T12:39:59.574Z,60.55
2018-03-07T12:40:59.582Z,61.96
2018-03-07T12:41:59.595Z,64.50
2018-03-07T12:42:59.611Z,65.45
2018-03-07T12:43:59.618Z,64.78
2018-03-07T12:44:59.630Z,64.87
2018-03-07T12:45:59.641Z,64.02
2018-03-07T12:46:59.655Z,64.05
2018-03-07T12:47:59.665Z,63.48
2018-03-07T12:48:59.701Z,63.48
2018-03-07T12:49:59.688Z,64.12
2018-03-07T12:50:59.698Z,63.67
2018-03-07T12:51:59.710Z,64.31
2018-03-07T12:52:59.723Z,64.50